sensor_id;sensor_type;location;lat;lon;timestamp;P1;durP1;ratioP1;P2;durP2;ratioP2
74538;SDS011;66042;51.090;-115.340;2023-07-29T00:02:22;2.40;;;0.80;;
74538;SDS011;66042;51.090;-115.340;2023-07-29T00:04:49;1.30;;;0.70;;
74538;SDS011;66042;51.090;-115.340;2023-07-29T00:07:16;1.70;;;0.90;;
74538;SDS011;66042;51.090;-115.340;2023-07-29T00:09:43;2.70;;;0.90;;
74538;SDS011;66042;51.090;-115.340;2023-07-29T00:12:10;2.10;;;1.10;;
74538;SDS011;66042;51.090;-115.340;2023-07-29T00:14:36;1.90;;;1.10;;
74538;SDS011;66042;51.090;-115.340;2023-07-29T00:17:03;1.40;;;0.90;;
74538;SDS011;66042;51.090;-115.340;2023-07-29T00:19:31;2.00;;;0.90;;
74538;SDS011;66042;51.090;-115.340;2023-07-29T00:21:59;2.00;;;1.10;;
74538;SDS011;66042;51.090;-115.340;2023-07-29T00:24:26;2.80;;;1.30;;
74538;SDS011;66042;51.090;-115.340;2023-07-29T00:26:53;3.30;;;1.60;;
74538;SDS011;66042;51.090;-115.340;2023-07-29T00:29:24;3.00;;;1.40;;
74538;SDS011;66042;51.090;-115.340;2023-07-29T00:31:51;2.90;;;1.50;;
74538;SDS011;66042;51.090;-115.340;2023-07-29T00:34:17;3.00;;;1.40;;
74538;SDS011;66042;51.090;-115.340;2023-07-29T00:36:48;1.90;;;1.30;;
74538;SDS011;66042;51.090;-115.340;2023-07-29T00:39:14;2.10;;;1.40;;
74538;SDS011;66042;51.090;-115.340;2023-07-29T00:41:41;4.00;;;1.40;;
74538;SDS011;66042;51.090;-115.340;2023-07-29T00:44:08;2.50;;;1.20;;
74538;SDS011;66042;51.090;-115.340;2023-07-29T00:46:36;2.00;;;1.10;;
74538;SDS011;66042;51.090;-115.340;2023-07-29T00:49:07;2.50;;;1.70;;
74538;SDS011;66042;51.090;-115.340;2023-07-29T00:51:34;2.80;;;1.20;;
74538;SDS011;66042;51.090;-115.340;2023-07-29T00:54:01;2.90;;;1.40;;
74538;SDS011;66042;51.090;-115.340;2023-07-29T00:56:28;3.00;;;1.30;;
74538;SDS011;66042;51.090;-115.340;2023-07-29T00:58:55;2.10;;;0.90;;
74538;SDS011;66042;51.090;-115.340;2023-07-29T01:01:26;2.10;;;1.10;;
74538;SDS011;66042;51.090;-115.340;2023-07-29T01:03:54;1.70;;;1.10;;
74538;SDS011;66042;51.090;-115.340;2023-07-29T01:12:51;5.70;;;1.50;;
74538;SDS011;66042;51.090;-115.340;2023-07-29T01:15:38;3.30;;;1.60;;
74538;SDS011;66042;51.090;-115.340;2023-07-29T01:18:18;2.00;;;1.50;;
74538;SDS011;66042;51.090;-115.340;2023-07-29T01:20:53;2.70;;;0.90;;
74538;SDS011;66042;51.090;-115.340;2023-07-29T01:23:30;2.60;;;1.10;;
74538;SDS011;66042;51.090;-115.340;2023-07-29T01:25:59;1.50;;;0.90;;
74538;SDS011;66042;51.090;-115.340;2023-07-29T01:28:28;2.30;;;1.00;;
74538;SDS011;66042;51.090;-115.340;2023-07-29T01:31:33;2.50;;;1.10;;
74538;SDS011;66042;51.090;-115.340;2023-07-29T01:34:32;2.60;;;1.00;;
74538;SDS011;66042;51.090;-115.340;2023-07-29T01:37:09;2.60;;;0.80;;
74538;SDS011;66042;51.090;-115.340;2023-07-29T01:39:44;1.80;;;0.90;;
74538;SDS011;66042;51.090;-115.340;2023-07-29T01:42:12;3.20;;;1.20;;
74538;SDS011;66042;51.090;-115.340;2023-07-29T01:44:39;2.50;;;1.30;;
74538;SDS011;66042;51.090;-115.340;2023-07-29T01:47:14;3.50;;;1.30;;
74538;SDS011;66042;51.090;-115.340;2023-07-29T01:49:41;3.20;;;1.40;;
74538;SDS011;66042;51.090;-115.340;2023-07-29T01:52:11;3.60;;;0.90;;
74538;SDS011;66042;51.090;-115.340;2023-07-29T01:54:41;1.70;;;0.80;;
74538;SDS011;66042;51.090;-115.340;2023-07-29T01:57:12;2.30;;;1.20;;
74538;SDS011;66042;51.090;-115.340;2023-07-29T01:59:39;3.20;;;0.90;;
74538;SDS011;66042;51.090;-115.340;2023-07-29T02:02:06;3.70;;;0.90;;
74538;SDS011;66042;51.090;-115.340;2023-07-29T02:04:33;2.50;;;1.00;;
74538;SDS011;66042;51.090;-115.340;2023-07-29T02:07:00;2.00;;;1.20;;
74538;SDS011;66042;51.090;-115.340;2023-07-29T02:09:26;1.20;;;0.80;;
74538;SDS011;66042;51.090;-115.340;2023-07-29T02:11:53;2.50;;;0.80;;
74538;SDS011;66042;51.090;-115.340;2023-07-29T02:14:19;2.60;;;1.20;;
74538;SDS011;66042;51.090;-115.340;2023-07-29T02:16:46;2.00;;;1.10;;
74538;SDS011;66042;51.090;-115.340;2023-07-29T02:19:13;2.70;;;1.10;;
74538;SDS011;66042;51.090;-115.340;2023-07-29T02:21:40;2.40;;;1.00;;
74538;SDS011;66042;51.090;-115.340;2023-07-29T02:24:09;2.10;;;0.80;;
74538;SDS011;66042;51.090;-115.340;2023-07-29T02:26:36;3.10;;;1.00;;
74538;SDS011;66042;51.090;-115.340;2023-07-29T02:29:03;3.00;;;1.10;;
74538;SDS011;66042;51.090;-115.340;2023-07-29T02:31:30;2.50;;;1.00;;
74538;SDS011;66042;51.090;-115.340;2023-07-29T02:33:57;3.70;;;1.30;;
74538;SDS011;66042;51.090;-115.340;2023-07-29T02:36:23;3.20;;;1.50;;
74538;SDS011;66042;51.090;-115.340;2023-07-29T02:38:50;3.20;;;1.50;;
74538;SDS011;66042;51.090;-115.340;2023-07-29T02:41:17;3.30;;;0.90;;
74538;SDS011;66042;51.090;-115.340;2023-07-29T02:43:47;3.30;;;1.30;;
74538;SDS011;66042;51.090;-115.340;2023-07-29T02:46:14;2.50;;;1.10;;
74538;SDS011;66042;51.090;-115.340;2023-07-29T02:48:42;3.70;;;1.10;;
74538;SDS011;66042;51.090;-115.340;2023-07-29T02:51:10;2.80;;;1.20;;
74538;SDS011;66042;51.090;-115.340;2023-07-29T02:53:37;3.30;;;1.30;;
74538;SDS011;66042;51.090;-115.340;2023-07-29T02:56:05;3.30;;;1.40;;
74538;SDS011;66042;51.090;-115.340;2023-07-29T02:58:36;1.90;;;1.30;;
74538;SDS011;66042;51.090;-115.340;2023-07-29T03:01:05;2.40;;;0.80;;
74538;SDS011;66042;51.090;-115.340;2023-07-29T03:03:32;2.00;;;1.00;;
74538;SDS011;66042;51.090;-115.340;2023-07-29T03:06:00;2.40;;;1.00;;
74538;SDS011;66042;51.090;-115.340;2023-07-29T03:08:31;2.20;;;1.30;;
74538;SDS011;66042;51.090;-115.340;2023-07-29T03:10:58;3.00;;;0.90;;
74538;SDS011;66042;51.090;-115.340;2023-07-29T03:13:25;3.40;;;1.20;;
74538;SDS011;66042;51.090;-115.340;2023-07-29T03:15:51;2.80;;;1.40;;
74538;SDS011;66042;51.090;-115.340;2023-07-29T03:18:18;2.00;;;0.90;;
74538;SDS011;66042;51.090;-115.340;2023-07-29T03:20:45;2.80;;;1.50;;
74538;SDS011;66042;51.090;-115.340;2023-07-29T03:23:15;3.90;;;1.30;;
74538;SDS011;66042;51.090;-115.340;2023-07-29T03:25:42;3.20;;;1.10;;
74538;SDS011;66042;51.090;-115.340;2023-07-29T03:28:08;1.90;;;1.00;;
74538;SDS011;66042;51.090;-115.340;2023-07-29T03:30:35;3.70;;;1.30;;
74538;SDS011;66042;51.090;-115.340;2023-07-29T03:33:02;2.70;;;1.40;;
74538;SDS011;66042;51.090;-115.340;2023-07-29T03:35:30;3.40;;;1.50;;
74538;SDS011;66042;51.090;-115.340;2023-07-29T03:37:57;2.10;;;0.90;;
74538;SDS011;66042;51.090;-115.340;2023-07-29T03:40:24;2.20;;;1.10;;
74538;SDS011;66042;51.090;-115.340;2023-07-29T03:42:51;3.30;;;1.10;;
74538;SDS011;66042;51.090;-115.340;2023-07-29T03:45:18;2.40;;;1.40;;
74538;SDS011;66042;51.090;-115.340;2023-07-29T03:47:44;2.50;;;1.30;;
74538;SDS011;66042;51.090;-115.340;2023-07-29T03:50:11;3.00;;;1.50;;
74538;SDS011;66042;51.090;-115.340;2023-07-29T03:52:38;3.00;;;1.50;;
74538;SDS011;66042;51.090;-115.340;2023-07-29T03:55:05;2.30;;;1.10;;
74538;SDS011;66042;51.090;-115.340;2023-07-29T03:57:32;3.80;;;1.60;;
74538;SDS011;66042;51.090;-115.340;2023-07-29T03:59:58;3.50;;;1.40;;
74538;SDS011;66042;51.090;-115.340;2023-07-29T04:02:25;4.50;;;1.10;;
74538;SDS011;66042;51.090;-115.340;2023-07-29T04:04:52;2.50;;;1.30;;
74538;SDS011;66042;51.090;-115.340;2023-07-29T04:07:19;6.40;;;1.20;;
74538;SDS011;66042;51.090;-115.340;2023-07-29T04:09:46;1.80;;;1.00;;
74538;SDS011;66042;51.090;-115.340;2023-07-29T04:12:13;3.00;;;2.00;;
74538;SDS011;66042;51.090;-115.340;2023-07-29T04:14:40;2.30;;;1.00;;
74538;SDS011;66042;51.090;-115.340;2023-07-29T04:17:07;2.30;;;1.30;;
74538;SDS011;66042;51.090;-115.340;2023-07-29T04:19:34;3.30;;;1.20;;
74538;SDS011;66042;51.090;-115.340;2023-07-29T04:22:01;4.80;;;1.50;;
74538;SDS011;66042;51.090;-115.340;2023-07-29T04:24:28;3.90;;;1.30;;
74538;SDS011;66042;51.090;-115.340;2023-07-29T04:26:55;2.00;;;1.30;;
74538;SDS011;66042;51.090;-115.340;2023-07-29T04:29:21;3.10;;;1.10;;
74538;SDS011;66042;51.090;-115.340;2023-07-29T04:31:51;2.70;;;1.00;;
74538;SDS011;66042;51.090;-115.340;2023-07-29T04:34:19;4.30;;;1.60;;
74538;SDS011;66042;51.090;-115.340;2023-07-29T04:36:46;2.20;;;1.20;;
74538;SDS011;66042;51.090;-115.340;2023-07-29T04:39:14;3.10;;;1.10;;
74538;SDS011;66042;51.090;-115.340;2023-07-29T04:41:41;2.00;;;1.10;;
74538;SDS011;66042;51.090;-115.340;2023-07-29T04:44:08;2.10;;;1.20;;
74538;SDS011;66042;51.090;-115.340;2023-07-29T04:46:36;2.70;;;1.40;;
74538;SDS011;66042;51.090;-115.340;2023-07-29T04:49:04;4.90;;;1.30;;
74538;SDS011;66042;51.090;-115.340;2023-07-29T04:51:31;2.40;;;1.30;;
74538;SDS011;66042;51.090;-115.340;2023-07-29T04:53:58;2.50;;;1.10;;
74538;SDS011;66042;51.090;-115.340;2023-07-29T04:56:25;4.10;;;1.10;;
74538;SDS011;66042;51.090;-115.340;2023-07-29T04:58:52;3.20;;;1.30;;
74538;SDS011;66042;51.090;-115.340;2023-07-29T05:01:20;4.20;;;1.20;;
74538;SDS011;66042;51.090;-115.340;2023-07-29T05:03:47;2.40;;;1.70;;
74538;SDS011;66042;51.090;-115.340;2023-07-29T05:06:14;1.90;;;1.30;;
74538;SDS011;66042;51.090;-115.340;2023-07-29T05:08:41;3.30;;;1.40;;
74538;SDS011;66042;51.090;-115.340;2023-07-29T05:11:07;5.60;;;1.40;;
74538;SDS011;66042;51.090;-115.340;2023-07-29T05:13:34;3.50;;;1.30;;
74538;SDS011;66042;51.090;-115.340;2023-07-29T05:16:02;2.90;;;1.30;;
74538;SDS011;66042;51.090;-115.340;2023-07-29T05:18:29;4.30;;;1.30;;
74538;SDS011;66042;51.090;-115.340;2023-07-29T05:20:56;4.50;;;1.70;;
74538;SDS011;66042;51.090;-115.340;2023-07-29T05:23:23;3.20;;;1.40;;
74538;SDS011;66042;51.090;-115.340;2023-07-29T05:25:50;4.30;;;1.80;;
74538;SDS011;66042;51.090;-115.340;2023-07-29T05:28:17;3.50;;;1.50;;
74538;SDS011;66042;51.090;-115.340;2023-07-29T05:30:44;3.30;;;1.60;;
74538;SDS011;66042;51.090;-115.340;2023-07-29T05:33:11;3.70;;;1.30;;
74538;SDS011;66042;51.090;-115.340;2023-07-29T05:35:37;4.00;;;1.50;;
74538;SDS011;66042;51.090;-115.340;2023-07-29T05:38:05;2.90;;;1.70;;
74538;SDS011;66042;51.090;-115.340;2023-07-29T05:40:34;4.60;;;1.80;;
74538;SDS011;66042;51.090;-115.340;2023-07-29T05:43:01;2.60;;;1.20;;
74538;SDS011;66042;51.090;-115.340;2023-07-29T05:45:29;4.50;;;1.40;;
74538;SDS011;66042;51.090;-115.340;2023-07-29T05:47:56;4.40;;;1.40;;
74538;SDS011;66042;51.090;-115.340;2023-07-29T05:50:23;2.70;;;1.20;;
74538;SDS011;66042;51.090;-115.340;2023-07-29T05:52:53;3.50;;;1.30;;
74538;SDS011;66042;51.090;-115.340;2023-07-29T05:55:20;3.00;;;1.40;;
74538;SDS011;66042;51.090;-115.340;2023-07-29T05:57:47;3.70;;;1.30;;
74538;SDS011;66042;51.090;-115.340;2023-07-29T06:00:14;2.80;;;1.60;;
74538;SDS011;66042;51.090;-115.340;2023-07-29T06:02:40;2.90;;;1.50;;
74538;SDS011;66042;51.090;-115.340;2023-07-29T06:05:07;4.60;;;1.40;;
74538;SDS011;66042;51.090;-115.340;2023-07-29T06:07:35;3.00;;;1.50;;
74538;SDS011;66042;51.090;-115.340;2023-07-29T06:10:01;2.80;;;1.90;;
74538;SDS011;66042;51.090;-115.340;2023-07-29T06:12:29;3.40;;;1.70;;
74538;SDS011;66042;51.090;-115.340;2023-07-29T06:14:56;3.30;;;1.40;;
74538;SDS011;66042;51.090;-115.340;2023-07-29T06:17:23;5.60;;;1.60;;
74538;SDS011;66042;51.090;-115.340;2023-07-29T06:19:50;3.30;;;1.90;;
74538;SDS011;66042;51.090;-115.340;2023-07-29T06:22:17;2.70;;;1.60;;
74538;SDS011;66042;51.090;-115.340;2023-07-29T06:24:43;5.30;;;2.10;;
74538;SDS011;66042;51.090;-115.340;2023-07-29T06:27:10;3.10;;;2.10;;
74538;SDS011;66042;51.090;-115.340;2023-07-29T06:29:38;4.70;;;2.30;;
74538;SDS011;66042;51.090;-115.340;2023-07-29T06:32:05;4.70;;;2.20;;
74538;SDS011;66042;51.090;-115.340;2023-07-29T06:34:32;5.40;;;2.30;;
74538;SDS011;66042;51.090;-115.340;2023-07-29T06:36:59;2.90;;;1.90;;
74538;SDS011;66042;51.090;-115.340;2023-07-29T06:39:26;4.10;;;2.20;;
74538;SDS011;66042;51.090;-115.340;2023-07-29T06:41:56;3.70;;;2.20;;
74538;SDS011;66042;51.090;-115.340;2023-07-29T06:44:22;5.10;;;2.40;;
74538;SDS011;66042;51.090;-115.340;2023-07-29T06:46:49;3.30;;;1.90;;
74538;SDS011;66042;51.090;-115.340;2023-07-29T06:49:17;3.20;;;2.10;;
74538;SDS011;66042;51.090;-115.340;2023-07-29T06:51:44;3.70;;;2.10;;
74538;SDS011;66042;51.090;-115.340;2023-07-29T06:54:11;3.20;;;2.30;;
74538;SDS011;66042;51.090;-115.340;2023-07-29T06:56:38;3.70;;;2.40;;
74538;SDS011;66042;51.090;-115.340;2023-07-29T06:59:05;2.80;;;2.20;;
74538;SDS011;66042;51.090;-115.340;2023-07-29T07:01:36;3.20;;;2.20;;
74538;SDS011;66042;51.090;-115.340;2023-07-29T07:04:03;4.00;;;2.10;;
74538;SDS011;66042;51.090;-115.340;2023-07-29T07:06:30;2.70;;;1.80;;
74538;SDS011;66042;51.090;-115.340;2023-07-29T07:08:57;4.70;;;2.60;;
74538;SDS011;66042;51.090;-115.340;2023-07-29T07:11:24;3.70;;;2.00;;
74538;SDS011;66042;51.090;-115.340;2023-07-29T07:13:51;3.40;;;2.10;;
74538;SDS011;66042;51.090;-115.340;2023-07-29T07:16:18;3.80;;;2.00;;
74538;SDS011;66042;51.090;-115.340;2023-07-29T07:18:45;4.20;;;2.90;;
74538;SDS011;66042;51.090;-115.340;2023-07-29T07:21:12;3.20;;;2.20;;
74538;SDS011;66042;51.090;-115.340;2023-07-29T07:23:39;5.50;;;2.60;;
74538;SDS011;66042;51.090;-115.340;2023-07-29T07:26:06;4.50;;;2.50;;
74538;SDS011;66042;51.090;-115.340;2023-07-29T07:28:32;4.40;;;2.80;;
74538;SDS011;66042;51.090;-115.340;2023-07-29T07:31:00;2.80;;;2.00;;
74538;SDS011;66042;51.090;-115.340;2023-07-29T07:33:36;4.30;;;2.50;;
74538;SDS011;66042;51.090;-115.340;2023-07-29T07:36:03;4.00;;;1.90;;
74538;SDS011;66042;51.090;-115.340;2023-07-29T07:38:30;4.90;;;2.50;;
74538;SDS011;66042;51.090;-115.340;2023-07-29T07:40:57;3.10;;;2.10;;
74538;SDS011;66042;51.090;-115.340;2023-07-29T07:43:24;4.10;;;2.60;;
74538;SDS011;66042;51.090;-115.340;2023-07-29T07:45:57;4.60;;;2.50;;
74538;SDS011;66042;51.090;-115.340;2023-07-29T07:48:26;5.90;;;3.20;;
74538;SDS011;66042;51.090;-115.340;2023-07-29T07:50:53;5.10;;;3.30;;
74538;SDS011;66042;51.090;-115.340;2023-07-29T07:53:21;4.80;;;3.40;;
74538;SDS011;66042;51.090;-115.340;2023-07-29T07:55:48;6.30;;;3.70;;
74538;SDS011;66042;51.090;-115.340;2023-07-29T07:58:15;6.90;;;3.90;;
74538;SDS011;66042;51.090;-115.340;2023-07-29T08:00:41;7.00;;;3.80;;
74538;SDS011;66042;51.090;-115.340;2023-07-29T08:03:08;6.40;;;4.40;;
74538;SDS011;66042;51.090;-115.340;2023-07-29T08:05:35;6.80;;;4.50;;
74538;SDS011;66042;51.090;-115.340;2023-07-29T08:08:06;7.40;;;4.80;;
74538;SDS011;66042;51.090;-115.340;2023-07-29T08:10:33;7.20;;;4.80;;
74538;SDS011;66042;51.090;-115.340;2023-07-29T08:13:00;7.80;;;4.70;;
74538;SDS011;66042;51.090;-115.340;2023-07-29T08:15:27;9.40;;;5.50;;
74538;SDS011;66042;51.090;-115.340;2023-07-29T08:17:54;7.90;;;5.00;;
74538;SDS011;66042;51.090;-115.340;2023-07-29T08:20:21;6.80;;;4.70;;
74538;SDS011;66042;51.090;-115.340;2023-07-29T08:22:48;10.20;;;5.30;;
74538;SDS011;66042;51.090;-115.340;2023-07-29T08:25:15;8.40;;;5.70;;
74538;SDS011;66042;51.090;-115.340;2023-07-29T08:27:42;8.30;;;5.20;;
74538;SDS011;66042;51.090;-115.340;2023-07-29T08:30:09;9.20;;;5.40;;
74538;SDS011;66042;51.090;-115.340;2023-07-29T08:32:39;7.20;;;4.80;;
74538;SDS011;66042;51.090;-115.340;2023-07-29T08:35:06;7.60;;;4.90;;
74538;SDS011;66042;51.090;-115.340;2023-07-29T08:37:33;7.10;;;4.80;;
74538;SDS011;66042;51.090;-115.340;2023-07-29T08:40:00;9.80;;;5.20;;
74538;SDS011;66042;51.090;-115.340;2023-07-29T08:42:31;7.30;;;5.40;;
74538;SDS011;66042;51.090;-115.340;2023-07-29T08:45:07;8.20;;;5.50;;
74538;SDS011;66042;51.090;-115.340;2023-07-29T08:47:35;6.80;;;5.10;;
74538;SDS011;66042;51.090;-115.340;2023-07-29T08:50:03;8.10;;;5.40;;
74538;SDS011;66042;51.090;-115.340;2023-07-29T08:52:31;7.60;;;5.50;;
74538;SDS011;66042;51.090;-115.340;2023-07-29T08:55:00;7.30;;;5.60;;
74538;SDS011;66042;51.090;-115.340;2023-07-29T08:57:28;9.80;;;5.90;;
74538;SDS011;66042;51.090;-115.340;2023-07-29T08:59:56;8.50;;;6.00;;
74538;SDS011;66042;51.090;-115.340;2023-07-29T09:02:24;8.60;;;6.50;;
74538;SDS011;66042;51.090;-115.340;2023-07-29T09:04:51;7.60;;;6.00;;
74538;SDS011;66042;51.090;-115.340;2023-07-29T09:07:18;10.20;;;6.40;;
74538;SDS011;66042;51.090;-115.340;2023-07-29T09:09:46;7.40;;;5.60;;
74538;SDS011;66042;51.090;-115.340;2023-07-29T09:12:13;7.50;;;6.00;;
74538;SDS011;66042;51.090;-115.340;2023-07-29T09:14:40;7.00;;;5.30;;
74538;SDS011;66042;51.090;-115.340;2023-07-29T09:17:08;8.00;;;6.40;;
74538;SDS011;66042;51.090;-115.340;2023-07-29T09:19:35;8.60;;;6.40;;
74538;SDS011;66042;51.090;-115.340;2023-07-29T09:22:02;9.20;;;6.50;;
74538;SDS011;66042;51.090;-115.340;2023-07-29T09:24:30;9.00;;;6.40;;
74538;SDS011;66042;51.090;-115.340;2023-07-29T09:26:58;9.90;;;6.30;;
74538;SDS011;66042;51.090;-115.340;2023-07-29T09:29:28;10.10;;;7.10;;
74538;SDS011;66042;51.090;-115.340;2023-07-29T09:32:18;9.80;;;6.90;;
74538;SDS011;66042;51.090;-115.340;2023-07-29T09:34:51;11.20;;;7.20;;
74538;SDS011;66042;51.090;-115.340;2023-07-29T09:37:21;11.80;;;7.60;;
74538;SDS011;66042;51.090;-115.340;2023-07-29T09:39:49;10.30;;;7.20;;
74538;SDS011;66042;51.090;-115.340;2023-07-29T09:42:21;15.00;;;8.40;;
74538;SDS011;66042;51.090;-115.340;2023-07-29T09:44:50;11.80;;;8.00;;
74538;SDS011;66042;51.090;-115.340;2023-07-29T09:47:21;15.20;;;8.20;;
74538;SDS011;66042;51.090;-115.340;2023-07-29T09:49:50;11.80;;;8.00;;
74538;SDS011;66042;51.090;-115.340;2023-07-29T09:52:20;14.60;;;7.60;;
74538;SDS011;66042;51.090;-115.340;2023-07-29T09:54:49;12.80;;;8.20;;
74538;SDS011;66042;51.090;-115.340;2023-07-29T09:57:18;12.10;;;7.80;;
74538;SDS011;66042;51.090;-115.340;2023-07-29T09:59:55;13.60;;;8.50;;
74538;SDS011;66042;51.090;-115.340;2023-07-29T10:02:24;14.40;;;8.50;;
74538;SDS011;66042;51.090;-115.340;2023-07-29T10:04:55;14.10;;;8.70;;
74538;SDS011;66042;51.090;-115.340;2023-07-29T10:07:24;11.50;;;7.90;;
74538;SDS011;66042;51.090;-115.340;2023-07-29T10:09:52;12.90;;;8.40;;
74538;SDS011;66042;51.090;-115.340;2023-07-29T10:12:21;15.30;;;8.60;;
74538;SDS011;66042;51.090;-115.340;2023-07-29T10:14:50;12.40;;;7.60;;
74538;SDS011;66042;51.090;-115.340;2023-07-29T10:17:20;10.30;;;7.20;;
74538;SDS011;66042;51.090;-115.340;2023-07-29T10:19:47;9.90;;;7.10;;
74538;SDS011;66042;51.090;-115.340;2023-07-29T10:22:17;10.70;;;7.70;;
74538;SDS011;66042;51.090;-115.340;2023-07-29T10:24:48;10.00;;;7.20;;
74538;SDS011;66042;51.090;-115.340;2023-07-29T10:27:18;11.10;;;7.80;;
74538;SDS011;66042;51.090;-115.340;2023-07-29T10:29:47;11.10;;;8.00;;
74538;SDS011;66042;51.090;-115.340;2023-07-29T10:32:15;10.70;;;8.40;;
74538;SDS011;66042;51.090;-115.340;2023-07-29T10:34:43;14.00;;;8.20;;
74538;SDS011;66042;51.090;-115.340;2023-07-29T10:37:10;12.20;;;8.20;;
74538;SDS011;66042;51.090;-115.340;2023-07-29T10:39:44;13.40;;;8.00;;
74538;SDS011;66042;51.090;-115.340;2023-07-29T10:42:20;10.80;;;7.50;;
74538;SDS011;66042;51.090;-115.340;2023-07-29T10:44:48;10.50;;;7.60;;
74538;SDS011;66042;51.090;-115.340;2023-07-29T10:47:22;10.50;;;7.80;;
74538;SDS011;66042;51.090;-115.340;2023-07-29T10:49:58;10.80;;;7.60;;
74538;SDS011;66042;51.090;-115.340;2023-07-29T10:52:40;11.80;;;8.10;;
74538;SDS011;66042;51.090;-115.340;2023-07-29T10:55:29;13.60;;;7.70;;
74538;SDS011;66042;51.090;-115.340;2023-07-29T11:00:34;11.80;;;7.70;;
74538;SDS011;66042;51.090;-115.340;2023-07-29T11:03:04;12.50;;;7.40;;
74538;SDS011;66042;51.090;-115.340;2023-07-29T11:08:18;12.90;;;7.70;;
74538;SDS011;66042;51.090;-115.340;2023-07-29T11:11:06;13.80;;;8.00;;
74538;SDS011;66042;51.090;-115.340;2023-07-29T11:13:36;10.90;;;6.90;;
74538;SDS011;66042;51.090;-115.340;2023-07-29T11:16:05;10.70;;;6.60;;
74538;SDS011;66042;51.090;-115.340;2023-07-29T11:18:34;12.70;;;7.10;;
74538;SDS011;66042;51.090;-115.340;2023-07-29T11:21:03;12.10;;;6.50;;
74538;SDS011;66042;51.090;-115.340;2023-07-29T11:23:35;9.60;;;5.10;;
74538;SDS011;66042;51.090;-115.340;2023-07-29T11:26:04;11.00;;;5.50;;
74538;SDS011;66042;51.090;-115.340;2023-07-29T11:28:38;10.40;;;6.00;;
74538;SDS011;66042;51.090;-115.340;2023-07-29T11:31:06;11.60;;;5.90;;
74538;SDS011;66042;51.090;-115.340;2023-07-29T11:33:33;9.90;;;5.60;;
74538;SDS011;66042;51.090;-115.340;2023-07-29T11:36:00;9.60;;;5.50;;
74538;SDS011;66042;51.090;-115.340;2023-07-29T11:38:27;10.00;;;6.30;;
74538;SDS011;66042;51.090;-115.340;2023-07-29T11:40:59;9.60;;;5.80;;
74538;SDS011;66042;51.090;-115.340;2023-07-29T11:43:29;10.80;;;6.10;;
74538;SDS011;66042;51.090;-115.340;2023-07-29T11:46:01;10.40;;;6.20;;
74538;SDS011;66042;51.090;-115.340;2023-07-29T11:48:32;10.20;;;6.30;;
74538;SDS011;66042;51.090;-115.340;2023-07-29T11:51:03;9.30;;;6.30;;
74538;SDS011;66042;51.090;-115.340;2023-07-29T11:53:31;10.30;;;6.00;;
74538;SDS011;66042;51.090;-115.340;2023-07-29T11:55:58;10.60;;;6.40;;
74538;SDS011;66042;51.090;-115.340;2023-07-29T11:58:26;11.70;;;6.30;;
74538;SDS011;66042;51.090;-115.340;2023-07-29T12:00:53;10.40;;;5.90;;
74538;SDS011;66042;51.090;-115.340;2023-07-29T12:03:20;9.90;;;6.60;;
74538;SDS011;66042;51.090;-115.340;2023-07-29T12:05:48;13.20;;;6.40;;
74538;SDS011;66042;51.090;-115.340;2023-07-29T12:08:15;12.50;;;6.90;;
74538;SDS011;66042;51.090;-115.340;2023-07-29T12:10:42;11.20;;;6.60;;
74538;SDS011;66042;51.090;-115.340;2023-07-29T12:13:09;15.10;;;6.90;;
74538;SDS011;66042;51.090;-115.340;2023-07-29T12:15:38;12.90;;;6.10;;
74538;SDS011;66042;51.090;-115.340;2023-07-29T12:18:06;11.20;;;6.50;;
74538;SDS011;66042;51.090;-115.340;2023-07-29T12:20:33;9.60;;;5.90;;
74538;SDS011;66042;51.090;-115.340;2023-07-29T12:23:00;12.40;;;6.20;;
74538;SDS011;66042;51.090;-115.340;2023-07-29T12:25:29;8.20;;;5.30;;
74538;SDS011;66042;51.090;-115.340;2023-07-29T12:28:01;9.10;;;4.90;;
74538;SDS011;66042;51.090;-115.340;2023-07-29T12:30:29;8.00;;;4.60;;
74538;SDS011;66042;51.090;-115.340;2023-07-29T12:32:56;8.00;;;4.60;;
74538;SDS011;66042;51.090;-115.340;2023-07-29T12:35:23;9.30;;;5.20;;
74538;SDS011;66042;51.090;-115.340;2023-07-29T12:38:00;10.00;;;4.80;;
74538;SDS011;66042;51.090;-115.340;2023-07-29T12:40:27;7.60;;;4.30;;
74538;SDS011;66042;51.090;-115.340;2023-07-29T12:42:56;7.60;;;4.70;;
74538;SDS011;66042;51.090;-115.340;2023-07-29T12:45:23;7.90;;;4.20;;
74538;SDS011;66042;51.090;-115.340;2023-07-29T12:47:53;7.00;;;4.30;;
74538;SDS011;66042;51.090;-115.340;2023-07-29T12:50:20;7.30;;;4.20;;
74538;SDS011;66042;51.090;-115.340;2023-07-29T12:52:47;7.90;;;4.90;;
74538;SDS011;66042;51.090;-115.340;2023-07-29T12:55:15;7.90;;;4.30;;
74538;SDS011;66042;51.090;-115.340;2023-07-29T12:57:42;9.30;;;4.20;;
74538;SDS011;66042;51.090;-115.340;2023-07-29T13:00:11;6.90;;;3.90;;
74538;SDS011;66042;51.090;-115.340;2023-07-29T13:02:38;7.40;;;3.90;;
74538;SDS011;66042;51.090;-115.340;2023-07-29T13:05:06;6.90;;;4.00;;
74538;SDS011;66042;51.090;-115.340;2023-07-29T13:07:38;8.40;;;4.50;;
74538;SDS011;66042;51.090;-115.340;2023-07-29T13:10:10;6.70;;;4.00;;
74538;SDS011;66042;51.090;-115.340;2023-07-29T13:12:40;7.70;;;4.00;;
74538;SDS011;66042;51.090;-115.340;2023-07-29T13:15:07;8.10;;;4.00;;
74538;SDS011;66042;51.090;-115.340;2023-07-29T13:17:34;10.50;;;4.00;;
74538;SDS011;66042;51.090;-115.340;2023-07-29T13:20:03;6.20;;;3.70;;
74538;SDS011;66042;51.090;-115.340;2023-07-29T13:22:30;8.90;;;4.30;;
74538;SDS011;66042;51.090;-115.340;2023-07-29T13:25:01;6.30;;;3.80;;
74538;SDS011;66042;51.090;-115.340;2023-07-29T13:27:28;8.80;;;3.70;;
74538;SDS011;66042;51.090;-115.340;2023-07-29T13:29:56;8.60;;;4.00;;
74538;SDS011;66042;51.090;-115.340;2023-07-29T13:32:22;6.10;;;3.70;;
74538;SDS011;66042;51.090;-115.340;2023-07-29T13:34:49;7.40;;;3.70;;
74538;SDS011;66042;51.090;-115.340;2023-07-29T13:37:16;6.00;;;3.80;;
74538;SDS011;66042;51.090;-115.340;2023-07-29T13:39:43;5.90;;;3.80;;
74538;SDS011;66042;51.090;-115.340;2023-07-29T13:42:09;8.70;;;4.20;;
74538;SDS011;66042;51.090;-115.340;2023-07-29T13:44:37;6.70;;;3.70;;
74538;SDS011;66042;51.090;-115.340;2023-07-29T13:47:04;7.20;;;4.00;;
74538;SDS011;66042;51.090;-115.340;2023-07-29T13:49:32;6.70;;;3.30;;
74538;SDS011;66042;51.090;-115.340;2023-07-29T13:52:00;7.40;;;3.90;;
74538;SDS011;66042;51.090;-115.340;2023-07-29T13:54:27;5.10;;;3.20;;
74538;SDS011;66042;51.090;-115.340;2023-07-29T13:56:54;6.70;;;3.80;;
74538;SDS011;66042;51.090;-115.340;2023-07-29T13:59:21;6.70;;;3.40;;
74538;SDS011;66042;51.090;-115.340;2023-07-29T14:01:47;6.10;;;3.80;;
74538;SDS011;66042;51.090;-115.340;2023-07-29T14:04:14;6.50;;;3.50;;
74538;SDS011;66042;51.090;-115.340;2023-07-29T14:06:41;5.70;;;3.40;;
74538;SDS011;66042;51.090;-115.340;2023-07-29T14:09:07;5.90;;;3.30;;
74538;SDS011;66042;51.090;-115.340;2023-07-29T14:11:35;7.30;;;3.20;;
74538;SDS011;66042;51.090;-115.340;2023-07-29T14:14:03;5.10;;;3.10;;
74538;SDS011;66042;51.090;-115.340;2023-07-29T14:16:30;5.70;;;3.30;;
74538;SDS011;66042;51.090;-115.340;2023-07-29T14:18:57;5.10;;;3.40;;
74538;SDS011;66042;51.090;-115.340;2023-07-29T14:21:24;5.50;;;3.80;;
74538;SDS011;66042;51.090;-115.340;2023-07-29T14:23:51;5.60;;;3.10;;
74538;SDS011;66042;51.090;-115.340;2023-07-29T14:26:18;5.70;;;3.00;;